Map

Track Data

SID SEASON NUMBER BASIN SUBBASIN NAME ISO_TIME NATURE LAT LON WMO_WIND WMO_PRES WMO_AGENCY TRACK_TYPE DIST2LAND LANDFALL IFLAG USA_AGENCY USA_ATCF_ID USA_LAT USA_LON USA_RECORD USA_STATUS USA_WIND USA_PRES USA_SSHS USA_R34_NE USA_R34_SE USA_R34_SW USA_R34_NW USA_R50_NE USA_R50_SE USA_R50_SW USA_R50_NW USA_R64_NE USA_R64_SE USA_R64_SW USA_R64_NW USA_POCI USA_ROCI USA_RMW USA_EYE TOKYO_LAT TOKYO_LON TOKYO_GRADE TOKYO_WIND TOKYO_PRES TOKYO_R50_DIR TOKYO_R50_LONG TOKYO_R50_SHORT TOKYO_R30_DIR TOKYO_R30_LONG TOKYO_R30_SHORT TOKYO_LAND CMA_LAT CMA_LON CMA_CAT CMA_WIND CMA_PRES HKO_LAT HKO_LON HKO_CAT HKO_WIND HKO_PRES NEWDELHI_LAT NEWDELHI_LON NEWDELHI_GRADE NEWDELHI_WIND NEWDELHI_PRES NEWDELHI_CI NEWDELHI_DP NEWDELHI_POCI REUNION_LAT REUNION_LON REUNION_TYPE REUNION_WIND REUNION_PRES REUNION_TNUM REUNION_CI REUNION_RMW REUNION_R34_NE REUNION_R34_SE REUNION_R34_SW REUNION_R34_NW REUNION_R50_NE REUNION_R50_SE REUNION_R50_SW REUNION_R50_NW REUNION_R64_NE REUNION_R64_SE REUNION_R64_SW REUNION_R64_NW BOM_LAT BOM_LON BOM_TYPE BOM_WIND BOM_PRES BOM_TNUM BOM_CI BOM_RMW BOM_R34_NE BOM_R34_SE BOM_R34_SW BOM_R34_NW BOM_R50_NE BOM_R50_SE BOM_R50_SW BOM_R50_NW BOM_R64_NE BOM_R64_SE BOM_R64_SW BOM_R64_NW BOM_ROCI BOM_POCI BOM_EYE BOM_POS_METHOD BOM_PRES_METHOD NADI_LAT NADI_LON NADI_CAT NADI_WIND NADI_PRES WELLINGTON_LAT WELLINGTON_LON WELLINGTON_WIND WELLINGTON_PRES DS824_LAT DS824_LON DS824_STAGE DS824_WIND DS824_PRES TD9636_LAT TD9636_LON TD9636_STAGE TD9636_WIND TD9636_PRES TD9635_LAT TD9635_LON TD9635_WIND TD9635_PRES TD9635_ROCI NEUMANN_LAT NEUMANN_LON NEUMANN_CLASS NEUMANN_WIND NEUMANN_PRES MLC_LAT MLC_LON MLC_CLASS MLC_WIND MLC_PRES USA_GUST BOM_GUST BOM_GUST_PER REUNION_GUST REUNION_GUST_PER USA_SEAHGT USA_SEARAD_NE USA_SEARAD_SE USA_SEARAD_SW USA_SEARAD_NW STORM_SPEED STORM_DIR
1970073N07138 1970 29 WP MM NOT_NAMED 1970-03-14 06:00:00 TS 6.70000 137.500 main 855 843 __O___________ -1 6.70000 137.500 0 1006 10 275
1970073N07138 1970 29 WP MM NOT_NAMED 1970-03-14 09:00:00 TS 6.74005 137.015 main 843 841 __P___________ -1 6.74005 137.015 0 1006 10 276
1970073N07138 1970 29 WP MM NOT_NAMED 1970-03-14 12:00:00 TS 6.80000 136.500 main 846 843 __O___________ -1 6.80000 136.500 0 1006 11 278
1970073N07138 1970 29 WP MM NOT_NAMED 1970-03-14 15:00:00 TS 6.89251 135.943 main 852 851 __P___________ -1 6.89251 135.943 0 1006 11 280
1970073N07138 1970 29 WP MM NOT_NAMED 1970-03-14 18:00:00 TS 7.00000 135.400 main 862 862 __O___________ -1 7.00000 135.400 0 1006 10 281
1970073N07138 1970 29 WP MM NOT_NAMED 1970-03-14 21:00:00 TS 7.09243 134.927 main 859 831 __P___________ -1 7.09243 134.927 0 1005 9 283
1970073N07138 1970 29 WP MM NOT_NAMED 1970-03-15 00:00:00 TS 7.20000 134.500 main 831 804 __O___________ -1 7.20000 134.500 0 19 1005 9 286
1970073N07138 1970 29 WP MM NOT_NAMED 1970-03-15 03:00:00 TS 7.33494 134.092 main 804 783 __P___________ -1 7.33494 134.092 0 19 1005 9 291
1970073N07138 1970 29 WP MM NOT_NAMED 1970-03-15 06:00:00 TS 7.50000 133.700 main 783 738 __O___________ -1 7.50000 133.700 0 19 1005 9 295
1970073N07138 1970 29 WP MM NOT_NAMED 1970-03-15 09:00:00 TS 7.69244 133.307 main 738 695 __P___________ -1 7.69244 133.307 0 19 1004 9 297
1970073N07138 1970 29 WP MM NOT_NAMED 1970-03-15 12:00:00 TS 7.90000 132.900 main 695 651 __O___________ -1 7.90000 132.900 0 19 1004 9 296
1970073N07138 1970 29 WP MM NOT_NAMED 1970-03-15 15:00:00 TS 8.09995 132.465 main 651 598 __P___________ -1 8.09995 132.465 0 19 1004 10 294
1970073N07138 1970 29 WP MM NOT_NAMED 1970-03-15 18:00:00 TS 8.30000 132.000 main 598 547 __O___________ -1 8.30000 132.000 0 19 1004 10 293
1970073N07138 1970 29 WP MM NOT_NAMED 1970-03-15 21:00:00 TS 8.50002 131.492 main 547 497 __P___________ -1 8.50002 131.492 0 21 1004 11 292
1970073N07138 1970 29 WP MM NOT_NAMED 1970-03-16 00:00:00 TS 8.70000 131.000 main 497 460 __O___________ -1 8.70000 131.000 1 23 1004 10 294
1970073N07138 1970 29 WP MM NOT_NAMED 1970-03-16 03:00:00 TS 8.90740 130.585 main 460 426 __P___________ -1 8.90740 130.585 1 23 1004 9 297
1970073N07138 1970 29 WP MM NOT_NAMED 1970-03-16 06:00:00 TS 9.10000 130.200 main 426 388 __O___________ -1 9.10000 130.200 1 23 1004 9 296
1970073N07138 1970 29 WP MM NOT_NAMED 1970-03-16 09:00:00 TS 9.27993 129.808 main 388 347 __P___________ -1 9.27993 129.808 1 23 1004 8 291
1970073N07138 1970 29 WP MM NOT_NAMED 1970-03-16 12:00:00 TS 9.40000 129.400 main 347 304 __O___________ -1 9.40000 129.400 1 23 1004 9 279
1970073N07138 1970 29 WP MM NOT_NAMED 1970-03-16 15:00:00 TS 9.41497 128.957 main 304 250 __P___________ -1 9.41497 128.957 1 23 1004 9 270
1970073N07138 1970 29 WP MM NOT_NAMED 1970-03-16 18:00:00 TS 9.40000 128.500 main 250 208 __O___________ -1 9.40000 128.500 1 23 1004 9 271
1970073N07138 1970 29 WP MM NOT_NAMED 1970-03-16 21:00:00 TS 9.42744 128.050 main 198 157 __P___________ -1 9.42744 128.050 1 23 1004 9 276
1970073N07138 1970 29 WP MM NOT_NAMED 1970-03-17 00:00:00 TS 9.50000 127.600 main 157 118 __O___________ -1 9.50000 127.600 1 23 1005 9 282
1970073N07138 1970 29 WP MM NOT_NAMED 1970-03-17 03:00:00 TS 9.61994 127.150 main 108 83 __P___________ -1 9.61994 127.150 1 21 1005 9 289
1970073N07138 1970 29 WP MM NOT_NAMED 1970-03-17 06:00:00 TS 9.80000 126.700 main 83 62 __O___________ -1 9.80000 126.700 0 19 1006 10 294
1970073N07138 1970 29 WP MM NOT_NAMED 1970-03-17 09:00:00 TS 10.0275 126.242 main 60 54 __P___________ -1 10.0275 126.242 0 19 1006 10 299
1970073N07138 1970 29 WP MM NOT_NAMED 1970-03-17 12:00:00 TS 10.3000 125.800 main 54 21 __O___________ -1 10.3000 125.800 0 19 1006 10 304
1970073N07138 1970 29 WP MM NOT_NAMED 1970-03-17 15:00:00 TS 10.5951 125.390 main 21 0 __P___________ -1 10.5951 125.390 0 19 1007 10 307
1970073N07138 1970 29 WP MM NOT_NAMED 1970-03-17 18:00:00 TS 10.9000 125.000 main 0 __O___________ -1 10.9000 125.000 0 19 1008 10 309

Digital Typhoon Data and Search

About IBTrACS Database

This database is a web-friendly format of International Best Track Archive for Climate Stewardship (IBTrACS), a global best track data archive curated by NOAA dating back to 1842.

Updated: 2021-12-06